Avon, NC (27915)

10:30 PM EDT on August 21, 2014 (GMT -0400)
KNCBUXTO2 | Change Station
CLOSE
Current Station
Personal Weather Station
Location: Buxton, NC
Elevation: 42 ft
Nearby Weather Stations

Elev 42 ft 35.26 °N, 75.53 °W | Updated 5 minutes ago

Clear
Clear
78.3 °F
Feels Like 81 °F
N
0.0
Wind Variable Wind from SW

Today
High -- | Low -- °F
--% Chance of Precip.
Yesterday
High -- | Low -- °F
Precip. -- in
6:26 AM 7:43 PM
Waning Crescent, 11% visible
Pressure 30.03 in
Visibility 10.0 miles
Clouds Clear
Heat Index 81 °F
Dew Point 77 °F
Humidity 95%
Rainfall 0.00 in
Snow Depth Not available.
UV 0 out of 12
Pollen 8.20 out of 12
Air Quality Not available.
Flu Activity Not available.
METAR KHSE 220151Z AUTO 24004KT 10SM CLR 26/25 A3003 RMK AO2 SLP168 T02610250 TSNO

More Conditions Fewer Conditions

Pressure 30.03 in
Visibility 10.0 miles
Clouds Clear
Heat Index 81 °F
Dew Point 77 °F
Humidity 95%
Rainfall 0.00 in
Snow Depth Not available.
UV 0 out of 12
Pollen 8.20 out of 12
Air Quality Not available.
Flu Activity Not available.
METAR KHSE 220151Z AUTO 24004KT 10SM CLR 26/25 A3003 RMK AO2 SLP168 T02610250 TSNO

More Conditions Fewer Conditions

10-Day Weather Forecast

Almanac

Astronomy

Aug. 21, 2014 Rise Set
Actual Time 6:26 AM EDT 7:43 PM EDT
Civil Twilight 5:59 AM EDT 8:10 PM EDT
Nautical Twilight 5:27 AM EDT 8:41 PM EDT
Astronomical Twilight 4:54 AM EDT 9:14 PM EDT
Moon 2:57 AM EDT (8/21) 5:07 PM EDT (8/21)
Length of Visible Light 14h 10m
Length of Day
13h 17m
Tomorrow will be 2m 2s shorter.
Waning Crescent, 11% of the Moon is Illuminated
Today
Waning Crescent
Aug 25
New
Sep 2
First Quarter
Sep 8
Full
Sep 15
Last Quarter

Today's Extremes

State Highs State Lows

Community

WunderPhotos

Upload Photos

1,746,109 photos uploaded!

WunderBlogs® & News

Nearby

Snow Depth

Station Depth Elevation
No new snow has been reported.

Earthquake Activity

City Distance Mag. Time & Date
No recent earthquake activity has been reported nearby.
Minimum magnitude displayed is 2.5.

Coastal Water Temperatures

Place Temperature
Oregon Inlet Marina, NC 84.0 °F
Hatteras, NC 82.9 °F
Duck Pier, NC 81.0 °F
Money Point, VA 84.9 °F
Beaufort, NC 82.9 °F
Sewells Point, VA 80.1 °F
Chesapeake Bay Bridge Tunnel, VA 77.0 °F

Nearby Weather Stations